createdAt,value
2023-04-05T00:00:44.764Z,5.47
2023-04-05T00:03:12.793Z,5.60
2023-04-05T00:05:40.260Z,5.90
2023-04-05T00:08:13.379Z,4.93
2023-04-05T00:10:41.059Z,5.78
2023-04-05T00:13:08.945Z,5.40
2023-04-05T00:15:36.202Z,5.55
2023-04-05T00:18:03.904Z,5.80
2023-04-05T00:20:31.289Z,5.13
2023-04-05T00:22:58.552Z,5.70
2023-04-05T00:25:26.183Z,5.30
2023-04-05T00:27:53.417Z,5.70
2023-04-05T00:30:21.362Z,5.40
2023-04-05T00:32:50.041Z,5.20
2023-04-05T00:35:17.729Z,5.50
2023-04-05T00:37:45.111Z,5.45
2023-04-05T00:40:12.370Z,5.65
2023-04-05T00:42:39.641Z,5.70
2023-04-05T00:45:07.532Z,5.60
2023-04-05T00:47:35.337Z,5.13
2023-04-05T00:50:03.225Z,5.25
2023-04-05T00:52:31.077Z,5.25
2023-04-05T00:54:59.116Z,5.80
2023-04-05T00:57:26.489Z,5.78
2023-04-05T00:59:53.824Z,5.50
2023-04-05T01:02:30.439Z,5.22
2023-04-05T01:05:09.777Z,5.32
2023-04-05T01:07:50.941Z,5.38
2023-04-05T01:10:22.051Z,5.85
2023-04-05T01:12:50.418Z,6.20
2023-04-05T01:15:18.930Z,5.32
2023-04-05T01:17:46.977Z,5.70
2023-04-05T01:20:15.269Z,5.30
2023-04-05T01:23:11.432Z,5.72
2023-04-05T01:26:03.102Z,5.82
2023-04-05T01:29:19.994Z,5.68
2023-04-05T01:32:00.646Z,6.30
2023-04-05T01:34:48.547Z,6.32
2023-04-05T01:37:19.099Z,5.82
2023-04-05T01:39:50.616Z,5.90
2023-04-05T01:42:24.643Z,5.97
2023-04-05T01:44:52.833Z,6.63
2023-04-05T01:47:21.086Z,5.95
2023-04-05T01:49:48.479Z,5.68
2023-04-05T01:52:15.891Z,5.95
2023-04-05T01:54:43.139Z,6.13
2023-04-05T01:57:10.465Z,6.40
2023-04-05T01:59:38.069Z,6.30
2023-04-05T02:02:05.552Z,5.90
2023-04-05T02:04:32.970Z,6.20
2023-04-05T02:07:01.028Z,6.28
2023-04-05T02:09:28.400Z,6.25
2023-04-05T02:11:56.577Z,6.13
2023-04-05T02:14:25.105Z,6.00
2023-04-05T02:16:55.822Z,6.20
2023-04-05T02:19:23.758Z,5.90
2023-04-05T02:21:53.774Z,6.07
2023-04-05T02:24:21.878Z,6.70
2023-04-05T02:26:49.198Z,6.18
2023-04-05T02:29:16.443Z,6.10
2023-04-05T02:31:43.784Z,6.30
2023-04-05T02:34:11.716Z,6.63
2023-04-05T02:36:38.961Z,6.97
2023-04-05T02:39:06.274Z,6.35
2023-04-05T02:41:33.583Z,7.10
2023-04-05T02:44:00.835Z,6.65
2023-04-05T02:46:28.195Z,6.82
2023-04-05T02:48:55.516Z,7.07
2023-04-05T02:51:22.862Z,6.68
2023-04-05T02:53:50.210Z,7.38
2023-04-05T02:56:17.474Z,6.75
2023-04-05T02:58:45.137Z,6.88
2023-04-05T03:01:12.838Z,6.80
2023-04-05T03:03:40.867Z,6.75
2023-04-05T03:06:11.105Z,6.88
2023-04-05T03:08:43.955Z,6.60
2023-04-05T03:11:12.712Z,6.22
2023-04-05T03:13:40.425Z,6.63
2023-04-05T03:16:07.959Z,6.05
2023-04-05T03:18:35.494Z,7.07
2023-04-05T03:21:04.432Z,6.32
2023-04-05T03:23:33.329Z,6.25
2023-04-05T03:26:04.449Z,6.13
2023-04-05T03:28:32.317Z,6.43
2023-04-05T03:30:59.976Z,6.20
2023-04-05T03:33:27.324Z,6.05
2023-04-05T03:35:54.732Z,6.30
2023-04-05T03:38:22.073Z,6.45
2023-04-05T03:40:49.391Z,6.68
2023-04-05T03:43:16.824Z,6.20
2023-04-05T03:45:44.219Z,6.80
2023-04-05T03:48:11.858Z,6.32
2023-04-05T03:50:39.155Z,6.18
2023-04-05T03:53:06.434Z,6.60
2023-04-05T03:55:33.778Z,6.28
2023-04-05T03:58:01.496Z,6.40
2023-04-05T04:00:29.613Z,6.38
2023-04-05T04:02:57.015Z,6.60
2023-04-05T04:05:24.361Z,6.35
2023-04-05T04:07:51.712Z,6.38
2023-04-05T04:10:19.001Z,6.88
2023-04-05T04:12:46.337Z,6.47
2023-04-05T04:15:13.714Z,6.63
2023-04-05T04:17:41.110Z,7.35
2023-04-05T04:20:11.933Z,7.05
2023-04-05T04:22:40.450Z,7.05
2023-04-05T04:25:12.828Z,6.90
2023-04-05T04:27:42.227Z,6.70
2023-04-05T04:30:12.323Z,6.78
2023-04-05T04:32:56.484Z,7.13
2023-04-05T04:35:29.024Z,6.75
2023-04-05T04:38:04.575Z,7.00
2023-04-05T04:40:40.057Z,7.38
2023-04-05T04:43:17.023Z,7.20
2023-04-05T04:45:48.385Z,6.97
2023-04-05T04:48:16.990Z,6.63
2023-04-05T04:50:52.161Z,6.97
2023-04-05T04:53:20.975Z,7.28
2023-04-05T04:55:50.045Z,7.28
2023-04-05T04:58:18.438Z,7.55
2023-04-05T05:00:45.814Z,7.85
2023-04-05T05:03:13.627Z,7.68
2023-04-05T05:05:48.715Z,7.75
2023-04-05T05:08:18.157Z,7.30
2023-04-05T05:10:51.060Z,7.05
2023-04-05T05:13:18.378Z,7.05
2023-04-05T05:15:45.710Z,7.43
2023-04-05T05:18:12.964Z,7.47
2023-04-05T05:20:41.523Z,7.95
2023-04-05T05:23:08.971Z,7.70
2023-04-05T05:25:37.808Z,8.05
2023-04-05T05:28:05.965Z,8.07
2023-04-05T05:30:33.530Z,7.95
2023-04-05T05:33:01.356Z,7.75
2023-04-05T05:35:28.902Z,7.30
2023-04-05T05:37:56.306Z,7.65
2023-04-05T05:40:23.596Z,8.07
2023-04-05T05:42:50.924Z,8.30
2023-04-05T05:45:18.293Z,8.25
2023-04-05T05:47:45.797Z,8.25
2023-04-05T05:50:13.194Z,8.15
2023-04-05T05:52:40.515Z,7.88
2023-04-05T05:55:08.305Z,8.10
2023-04-05T05:57:37.062Z,8.00
2023-04-05T06:00:09.187Z,7.80
2023-04-05T06:02:36.819Z,8.07
2023-04-05T06:05:04.954Z,7.95
2023-04-05T06:07:36.469Z,7.30
2023-04-05T06:10:05.083Z,7.68
2023-04-05T06:12:32.867Z,7.10
2023-04-05T06:15:00.968Z,7.75
2023-04-05T06:17:28.743Z,7.90
2023-04-05T06:19:56.194Z,7.82
2023-04-05T06:22:23.691Z,8.00
2023-04-05T06:24:50.965Z,7.63
2023-04-05T06:27:18.321Z,8.05
2023-04-05T06:29:45.787Z,8.15
2023-04-05T06:32:13.175Z,7.38
2023-04-05T06:34:41.220Z,7.07
2023-04-05T06:37:08.506Z,8.00
2023-04-05T06:39:36.975Z,7.40
2023-04-05T06:42:04.373Z,7.45
2023-04-05T06:44:31.623Z,8.70
2023-04-05T06:46:59.249Z,7.88
2023-04-05T06:49:26.634Z,7.97
2023-04-05T06:51:53.945Z,8.43
2023-04-05T06:54:23.129Z,7.82
2023-04-05T06:56:50.844Z,7.78
2023-04-05T06:59:18.225Z,8.32
2023-04-05T07:01:45.647Z,8.50
2023-04-05T07:04:13.369Z,8.48
2023-04-05T07:06:41.044Z,8.63
2023-04-05T07:09:08.277Z,8.05
2023-04-05T07:11:36.397Z,8.18
2023-04-05T07:14:03.732Z,8.40
2023-04-05T07:16:31.096Z,8.55
2023-04-05T07:18:58.429Z,8.52
2023-04-05T07:21:27.041Z,8.85
2023-04-05T07:23:56.062Z,8.63
2023-04-05T07:26:23.429Z,8.57
2023-04-05T07:28:50.680Z,8.43
2023-04-05T07:31:18.017Z,8.75
2023-04-05T07:33:45.718Z,8.40
2023-04-05T07:36:13.011Z,8.93
2023-04-05T07:38:41.406Z,8.65
2023-04-05T07:41:08.725Z,8.50
2023-04-05T07:43:36.105Z,8.23
2023-04-05T07:46:04.398Z,8.52
2023-04-05T07:48:31.880Z,8.57
2023-04-05T07:51:05.142Z,8.50
2023-04-05T07:53:32.838Z,8.13
2023-04-05T07:56:03.860Z,8.55
2023-04-05T07:58:32.564Z,8.30
2023-04-05T08:01:01.464Z,8.57
2023-04-05T08:03:30.119Z,8.50
2023-04-05T08:05:58.124Z,7.97
2023-04-05T08:08:26.102Z,8.25
2023-04-05T08:10:53.910Z,8.32
2023-04-05T08:13:21.216Z,7.88
2023-04-05T08:15:48.455Z,7.35
2023-04-05T08:18:15.756Z,7.50
2023-04-05T08:20:43.139Z,7.80
2023-04-05T08:23:11.274Z,7.22
2023-04-05T08:25:40.073Z,7.85
2023-04-05T08:28:09.304Z,7.38
2023-04-05T08:30:36.773Z,8.02
2023-04-05T08:33:04.170Z,7.50
2023-04-05T08:35:32.205Z,7.40
2023-04-05T08:37:59.603Z,7.38
2023-04-05T08:40:44.854Z,7.43
2023-04-05T08:43:16.301Z,7.78
2023-04-05T08:45:51.396Z,7.07
2023-04-05T08:48:19.992Z,7.55
2023-04-05T08:50:54.035Z,7.13
2023-04-05T08:53:21.921Z,7.18
2023-04-05T08:55:54.183Z,7.57
2023-04-05T08:58:22.692Z,7.35
2023-04-05T09:00:51.949Z,7.93
2023-04-05T09:03:23.582Z,7.40
2023-04-05T09:05:52.452Z,7.40
2023-04-05T09:08:23.799Z,7.78
2023-04-05T09:10:54.179Z,8.43
2023-04-05T09:13:21.483Z,8.52
2023-04-05T09:15:49.287Z,8.55
2023-04-05T09:18:26.109Z,8.02
2023-04-05T09:21:13.008Z,8.30
2023-04-05T09:23:53.309Z,7.82
2023-04-05T09:26:25.678Z,8.80
2023-04-05T09:28:53.218Z,8.00
2023-04-05T09:31:34.996Z,8.10
2023-04-05T09:34:06.236Z,8.05
2023-04-05T09:36:43.377Z,8.07
2023-04-05T09:39:10.816Z,7.40
2023-04-05T09:41:39.347Z,7.07
2023-04-05T09:44:07.188Z,8.00
2023-04-05T09:46:38.212Z,7.45
2023-04-05T09:49:08.016Z,6.95
2023-04-05T09:51:37.607Z,8.02
2023-04-05T09:54:09.929Z,7.53
2023-04-05T09:56:53.337Z,7.97
2023-04-05T09:59:21.605Z,7.70
2023-04-05T10:01:53.516Z,7.85
2023-04-05T10:04:23.143Z,7.60
2023-04-05T10:06:50.640Z,7.93
2023-04-05T10:09:19.499Z,8.07
2023-04-05T10:11:47.104Z,7.85
2023-04-05T10:14:14.613Z,7.72
2023-04-05T10:17:01.467Z,8.18
2023-04-05T10:19:37.470Z,8.40
2023-04-05T10:22:12.804Z,9.13
2023-04-05T10:24:55.609Z,8.82
2023-04-05T10:27:32.949Z,8.52
2023-04-05T10:30:04.764Z,8.40
2023-04-05T10:33:13.861Z,8.45
2023-04-05T10:35:50.512Z,8.63
2023-04-05T10:38:24.554Z,8.30
2023-04-05T10:41:01.056Z,7.97
2023-04-05T10:43:29.122Z,8.52
2023-04-05T10:45:59.186Z,8.18
2023-04-05T10:48:49.656Z,9.10
2023-04-05T10:51:19.019Z,8.57
2023-04-05T10:53:48.024Z,8.93
2023-04-05T10:56:17.003Z,8.77
2023-04-05T10:58:45.643Z,9.05
2023-04-05T11:01:17.420Z,8.93
2023-04-05T11:03:52.547Z,8.20
2023-04-05T11:06:29.724Z,8.80
2023-04-05T11:09:10.184Z,8.52
2023-04-05T11:11:42.181Z,8.32
2023-04-05T11:14:26.509Z,8.88
2023-04-05T11:16:59.933Z,9.07
2023-04-05T11:19:48.328Z,8.93
2023-04-05T11:22:27.447Z,8.57
2023-04-05T11:25:03.197Z,8.27
2023-04-05T11:27:37.599Z,8.23
2023-04-05T11:30:06.883Z,8.85
2023-04-05T11:32:42.877Z,9.10
2023-04-05T11:35:23.229Z,8.27
2023-04-05T11:38:09.046Z,8.77
2023-04-05T11:40:40.508Z,8.18
2023-04-05T11:43:10.391Z,8.70
2023-04-05T11:45:46.621Z,8.05
2023-04-05T11:48:15.350Z,8.50
2023-04-05T11:50:43.069Z,7.65
2023-04-05T11:53:13.367Z,8.10
2023-04-05T11:55:43.569Z,8.30
2023-04-05T11:58:18.333Z,7.75
2023-04-05T12:00:56.696Z,7.78
2023-04-05T12:03:24.180Z,8.27
2023-04-05T12:05:55.994Z,8.20
2023-04-05T12:08:24.329Z,7.93
2023-04-05T12:11:03.466Z,7.65
2023-04-05T12:13:37.630Z,7.63
2023-04-05T12:16:06.498Z,7.20
2023-04-05T12:18:37.792Z,7.40
2023-04-05T12:21:09.875Z,8.25
2023-04-05T12:23:38.205Z,8.00
2023-04-05T12:26:08.372Z,8.07
2023-04-05T12:28:57.218Z,8.57
2023-04-05T12:31:45.471Z,9.05
2023-04-05T12:34:14.677Z,9.50
2023-04-05T12:36:48.915Z,9.13
2023-04-05T12:39:17.795Z,8.43
2023-04-05T12:41:45.345Z,8.10
2023-04-05T12:44:16.085Z,7.72
2023-04-05T12:46:49.658Z,7.22
2023-04-05T12:49:19.340Z,7.18
2023-04-05T12:51:48.282Z,7.40
2023-04-05T12:54:23.288Z,7.72
2023-04-05T12:56:54.652Z,7.32
2023-04-05T12:59:23.387Z,6.47
2023-04-05T13:01:51.509Z,7.18
2023-04-05T13:04:19.035Z,7.20
2023-04-05T13:06:47.670Z,6.72
2023-04-05T13:09:15.177Z,6.82
2023-04-05T13:11:42.526Z,6.57
2023-04-05T13:14:09.947Z,6.53
2023-04-05T13:16:37.371Z,6.57
2023-04-05T13:19:04.700Z,6.45
2023-04-05T13:21:32.658Z,6.63
2023-04-05T13:23:59.954Z,7.22
2023-04-05T13:26:27.623Z,6.30
2023-04-05T13:28:55.008Z,6.72
2023-04-05T13:31:22.378Z,6.45
2023-04-05T13:33:49.785Z,6.43
2023-04-05T13:36:17.531Z,6.40
2023-04-05T13:38:44.844Z,7.57
2023-04-05T13:41:12.161Z,5.95
2023-04-05T13:43:39.384Z,6.63
2023-04-05T13:46:06.803Z,7.18
2023-04-05T13:48:34.071Z,6.20
2023-04-05T13:51:01.363Z,8.00
2023-04-05T13:53:28.889Z,6.75
2023-04-05T13:55:56.216Z,7.38
2023-04-05T13:58:23.532Z,6.53
2023-04-05T14:00:52.397Z,6.28
2023-04-05T14:03:19.847Z,6.25
2023-04-05T14:05:50.268Z,6.32
2023-04-05T14:08:18.769Z,6.70
2023-04-05T14:10:46.187Z,6.90
2023-04-05T14:13:16.262Z,6.57
2023-04-05T14:15:44.084Z,7.28
2023-04-05T14:18:11.786Z,6.72
2023-04-05T14:20:39.626Z,7.30
2023-04-05T14:23:07.336Z,6.45
2023-04-05T14:25:34.689Z,6.63
2023-04-05T14:28:02.037Z,7.50
2023-04-05T14:30:29.452Z,6.75
2023-04-05T14:32:56.946Z,6.57
2023-04-05T14:35:24.604Z,6.43
2023-04-05T14:37:51.885Z,7.45
2023-04-05T14:40:19.221Z,6.28
2023-04-05T14:42:49.613Z,8.32
2023-04-05T14:45:18.076Z,7.07
2023-04-05T14:47:45.667Z,7.10
2023-04-05T14:50:13.035Z,6.47
2023-04-05T14:52:40.398Z,6.93
2023-04-05T14:55:08.132Z,6.78
2023-04-05T14:57:35.631Z,6.60
2023-04-05T15:00:03.185Z,6.93
2023-04-05T15:02:30.968Z,6.90
2023-04-05T15:05:00.467Z,7.07
2023-04-05T15:07:28.623Z,6.28
2023-04-05T15:09:56.087Z,6.47
2023-04-05T15:12:23.805Z,6.60
2023-04-05T15:14:52.666Z,6.13
2023-04-05T15:17:20.438Z,7.13
2023-04-05T15:19:47.937Z,6.68
2023-04-05T15:22:15.937Z,6.32
2023-04-05T15:24:43.318Z,6.57
2023-04-05T15:27:11.484Z,7.20
2023-04-05T15:29:38.995Z,7.38
2023-04-05T15:32:06.308Z,7.90
2023-04-05T15:34:33.724Z,7.72
2023-04-05T15:37:01.414Z,7.95
2023-04-05T15:39:28.737Z,9.10
2023-04-05T15:41:59.769Z,9.98
2023-04-05T15:44:27.063Z,9.98
2023-04-05T15:46:54.473Z,10.13
2023-04-05T15:49:21.789Z,11.30
2023-04-05T15:51:49.220Z,10.85
2023-04-05T15:54:18.846Z,11.88
2023-04-05T15:56:46.749Z,12.32
2023-04-05T15:59:14.626Z,12.00
2023-04-05T16:01:42.138Z,11.57
2023-04-05T16:04:09.979Z,11.63
2023-04-05T16:06:37.464Z,11.60
2023-04-05T16:09:04.960Z,11.60
2023-04-05T16:11:32.348Z,11.88
2023-04-05T16:14:00.196Z,11.98
2023-04-05T16:16:38.856Z,11.73
2023-04-05T16:19:15.534Z,11.55
2023-04-05T16:21:42.895Z,11.45
2023-04-05T16:24:10.366Z,11.27
2023-04-05T16:26:37.730Z,11.05
2023-04-05T16:29:05.478Z,11.30
2023-04-05T16:31:33.579Z,11.15
2023-04-05T16:34:01.184Z,10.38
2023-04-05T16:36:28.694Z,11.00
2023-04-05T16:38:56.190Z,10.48
2023-04-05T16:41:27.529Z,11.57
2023-04-05T16:43:54.882Z,10.13
2023-04-05T16:46:22.316Z,11.30
2023-04-05T16:48:49.647Z,10.35
2023-04-05T16:51:17.204Z,10.65
2023-04-05T16:53:44.554Z,11.10
2023-04-05T16:56:11.939Z,11.73
2023-04-05T16:58:39.253Z,11.93
2023-04-05T17:01:06.568Z,11.50
2023-04-05T17:03:34.038Z,11.63
2023-04-05T17:06:01.790Z,10.75
2023-04-05T17:08:29.167Z,11.75
2023-04-05T17:10:56.751Z,12.10
2023-04-05T17:13:24.535Z,11.30
2023-04-05T17:15:52.820Z,11.90
2023-04-05T17:18:20.193Z,11.75
2023-04-05T17:20:47.482Z,11.88
2023-04-05T17:23:15.454Z,12.15
2023-04-05T17:25:42.792Z,11.70
2023-04-05T17:28:10.380Z,12.85
2023-04-05T17:30:37.798Z,12.00
2023-04-05T17:33:05.279Z,13.00
2023-04-05T17:35:32.834Z,12.10
2023-04-05T17:38:03.203Z,12.70
2023-04-05T17:40:31.237Z,12.25
2023-04-05T17:42:58.623Z,12.68
2023-04-05T17:45:26.032Z,12.50
2023-04-05T17:47:53.498Z,12.68
2023-04-05T17:50:22.145Z,12.55
2023-04-05T17:52:50.701Z,12.70
2023-04-05T17:55:18.122Z,13.23
2023-04-05T17:57:45.562Z,12.73
2023-04-05T18:00:13.535Z,12.75
2023-04-05T18:02:41.853Z,12.63
2023-04-05T18:05:10.221Z,12.63
2023-04-05T18:07:39.175Z,12.82
2023-04-05T18:10:07.357Z,12.40
2023-04-05T18:12:34.964Z,12.77
2023-04-05T18:15:02.316Z,12.65
2023-04-05T18:17:29.707Z,12.68
2023-04-05T18:19:57.297Z,11.95
2023-04-05T18:22:24.675Z,11.70
2023-04-05T18:24:52.002Z,12.07
2023-04-05T18:27:19.316Z,11.00
2023-04-05T18:29:46.869Z,10.70
2023-04-05T18:32:14.474Z,11.07
2023-04-05T18:34:42.080Z,10.80
2023-04-05T18:37:09.596Z,11.55
2023-04-05T18:39:36.897Z,10.98
2023-04-05T18:42:04.367Z,10.93
2023-04-05T18:44:31.765Z,9.98
2023-04-05T18:46:59.203Z,10.90
2023-04-05T18:49:26.819Z,11.73
2023-04-05T18:51:55.831Z,11.07
2023-04-05T18:54:23.244Z,11.10
2023-04-05T18:56:50.566Z,10.20
2023-04-05T18:59:18.181Z,10.15
2023-04-05T19:01:45.574Z,11.18
2023-04-05T19:04:13.027Z,10.40
2023-04-05T19:06:40.376Z,10.20
2023-04-05T19:09:07.977Z,10.38
2023-04-05T19:11:35.693Z,10.90
2023-04-05T19:14:03.969Z,10.45
2023-04-05T19:16:31.621Z,10.80
2023-04-05T19:18:59.164Z,10.23
2023-04-05T19:21:26.481Z,11.07
2023-04-05T19:23:53.798Z,10.70
2023-04-05T19:26:22.548Z,11.52
2023-04-05T19:28:50.377Z,9.88
2023-04-05T19:31:17.695Z,9.95
2023-04-05T19:33:45.074Z,10.70
2023-04-05T19:36:12.427Z,10.50
2023-04-05T19:38:40.694Z,10.55
2023-04-05T19:41:08.029Z,10.82
2023-04-05T19:43:36.831Z,10.82
2023-04-05T19:46:10.045Z,9.65
2023-04-05T19:48:47.031Z,10.48
2023-04-05T19:51:17.982Z,9.93
2023-04-05T19:53:49.217Z,11.30
2023-04-05T19:56:37.438Z,11.25
2023-04-05T19:59:25.264Z,9.93
2023-04-05T20:01:52.789Z,11.13
2023-04-05T20:04:22.494Z,10.48
2023-04-05T20:06:54.314Z,10.65
2023-04-05T20:09:24.353Z,11.02
2023-04-05T20:11:59.910Z,10.98
2023-04-05T20:14:46.431Z,10.27
2023-04-05T20:17:16.110Z,10.45
2023-04-05T20:19:57.692Z,11.55
2023-04-05T20:22:26.231Z,11.52
2023-04-05T20:24:53.566Z,10.80
2023-04-05T20:27:20.963Z,12.43
